Time;durP1;ratioP1;P1;durP2;ratioP2;P2;SDS_P1;SDS_P2;PMS_P1;PMS_P2;Temp;Humidity;BMP_temperature;BMP_pressure;BME280_temperature;BME280_humidity;BME280_pressure;Samples;Min_cycle;Max_cycle;Signal;HPM_P1;HPM_P2
2021/05/18 00:00:18;;;;;;;7.53;1.52;;;;;;;17.48;57.95;100822.97;4957318;28;20081;-63
2021/05/18 00:02:45;;;;;;;4.93;1.20;;;;;;;17.45;58.10;100829.28;4940437;28;20102;-62
2021/05/18 00:05:14;;;;;;;9.50;1.97;;;;;;;17.40;58.21;100804.84;4967989;28;20074;-61
2021/05/18 00:07:47;;;;;;;5.23;1.20;;;;;;;17.35;58.03;100798.47;4972585;28;20043;-62
2021/05/18 00:12:59;;;;;;;7.28;1.67;;;;;;;17.38;57.93;100806.31;4972848;28;20055;-60
2021/05/18 00:15:27;;;;;;;6.67;1.33;;;;;;;17.41;58.14;100822.59;4972861;28;20454;-60
2021/05/18 00:17:54;;;;;;;4.07;1.10;;;;;;;17.20;57.81;100808.97;4972542;28;20079;-61
2021/05/18 00:20:21;;;;;;;2.80;0.90;;;;;;;17.26;57.75;100816.19;4972663;28;20067;-61
2021/05/18 00:22:48;;;;;;;3.42;1.10;;;;;;;17.32;58.02;100814.03;4972375;28;20051;-61
2021/05/18 00:25:16;;;;;;;8.93;1.25;;;;;;;17.34;57.76;100814.56;4967900;28;20454;-60
2021/05/18 00:27:43;;;;;;;5.65;1.67;;;;;;;17.27;57.64;100800.91;4972926;28;20058;-61
2021/05/18 00:30:12;;;;;;;5.73;1.47;;;;;;;17.12;57.31;100770.22;4971465;28;20098;-62
2021/05/18 00:32:39;;;;;;;5.75;1.23;;;;;;;17.41;57.44;100828.25;4972754;28;20414;-65
2021/05/18 00:35:09;;;;;;;4.15;0.68;;;;;;;17.30;57.64;100816.38;4966530;28;20081;-64
2021/05/18 00:37:36;;;;;;;10.73;1.50;;;;;;;17.33;57.41;100829.81;4972041;28;20142;-65
2021/05/18 00:40:13;;;;;;;3.70;0.80;;;;;;;17.33;57.83;100812.88;4972096;28;20158;-61
2021/05/18 00:42:48;;;;;;;3.75;1.33;;;;;;;17.37;57.44;100811.13;4957659;28;20078;-64
2021/05/18 00:45:17;;;;;;;5.85;1.13;;;;;;;17.16;57.77;100785.38;4968718;28;20138;-64
2021/05/18 00:47:44;;;;;;;3.25;1.00;;;;;;;17.31;57.62;100805.91;4971912;28;20478;-64
2021/05/18 00:50:13;;;;;;;4.00;1.20;;;;;;;17.25;57.80;100803.19;4972264;28;20043;-64
2021/05/18 00:52:40;;;;;;;3.47;1.13;;;;;;;17.26;58.13;100810.53;4972291;28;20070;-63
2021/05/18 00:55:09;;;;;;;5.70;1.53;;;;;;;17.35;58.11;100806.94;4969107;28;20476;-64
2021/05/18 01:00:21;;;;;;;9.32;2.10;;;;;;;17.31;58.05;100808.75;4972010;28;20051;-66
2021/05/18 01:02:48;;;;;;;2.23;1.13;;;;;;;17.35;57.84;100798.47;4972214;28;20487;-65
2021/05/18 01:05:19;;;;;;;7.18;1.40;;;;;;;17.26;57.80;100775.81;4954909;28;20071;-67
2021/05/18 01:07:49;;;;;;;7.88;1.67;;;;;;;17.28;57.75;100774.34;4961905;28;20458;-68
2021/05/18 01:10:17;;;;;;;4.05;1.73;;;;;;;17.39;57.79;100793.84;4971947;28;20430;-64
2021/05/18 01:12:44;;;;;;;7.25;1.27;;;;;;;17.31;58.05;100794.63;4943422;28;20071;-64
2021/05/18 01:15:12;;;;;;;4.47;1.02;;;;;;;17.28;57.84;100796.09;4970956;28;20082;-63
2021/05/18 01:17:38;;;;;;;3.90;1.23;;;;;;;17.42;57.71;100802.50;4969398;28;20047;-64
2021/05/18 01:20:09;;;;;;;11.93;1.73;;;;;;;17.28;58.29;100779.97;4973903;28;20047;-59
2021/05/18 01:22:37;;;;;;;10.05;1.30;;;;;;;17.41;58.17;100785.91;4958130;28;20066;-61
2021/05/18 01:25:05;;;;;;;5.88;1.05;;;;;;;17.23;58.21;100759.50;4957367;28;20090;-61
2021/05/18 01:27:32;;;;;;;6.07;1.07;;;;;;;17.10;58.08;100749.97;4973261;28;20047;-61
2021/05/18 01:29:59;;;;;;;3.07;1.20;;;;;;;17.33;57.75;100781.84;4973959;28;20043;-61
2021/05/18 01:32:26;;;;;;;8.83;1.00;;;;;;;17.40;57.92;100798.31;4975678;28;20057;-61
2021/05/18 01:34:53;;;;;;;8.93;1.40;;;;;;;17.40;58.23;100789.84;4974926;28;20146;-61
2021/05/18 01:37:20;;;;;;;6.93;1.50;;;;;;;17.25;58.21;100783.44;4975911;28;20133;-64
2021/05/18 01:42:46;;;;;;;5.25;0.77;;;;;;;17.23;58.30;100788.59;4970331;28;20434;-62
2021/05/18 01:42:48;;;;;;;7.30;1.10;;;;;;;17.20;58.36;100777.09;4959219;28;20443;-64
2021/05/18 01:45:34;;;;;;;8.20;1.47;;;;;;;17.13;58.24;100754.97;4942276;28;20070;-64
2021/05/18 01:48:06;;;;;;;3.63;1.37;;;;;;;17.23;58.40;100765.16;4964211;28;20114;-64
2021/05/18 01:50:34;;;;;;;4.67;1.33;;;;;;;17.11;58.86;100754.44;4970611;28;20070;-64
2021/05/18 01:53:02;;;;;;;3.75;1.45;;;;;;;17.21;58.35;100770.31;4975315;28;20070;-63
2021/05/18 01:55:34;;;;;;;1.47;0.87;;;;;;;17.24;58.69;100770.50;4975129;28;20070;-61
2021/05/18 01:58:01;;;;;;;4.00;0.90;;;;;;;17.27;58.41;100778.31;4975212;28;20525;-60
2021/05/18 02:00:31;;;;;;;3.30;1.02;;;;;;;17.16;58.56;100759.13;4972871;28;20054;-61
2021/05/18 02:02:59;;;;;;;6.13;1.40;;;;;;;17.39;58.27;100771.25;4974232;28;20523;-60
2021/05/18 02:05:36;;;;;;;6.70;1.27;;;;;;;17.32;58.22;100763.25;4974241;28;20071;-60
2021/05/18 02:08:05;;;;;;;8.43;1.53;;;;;;;17.32;58.57;100773.69;4956954;28;20082;-60
2021/05/18 02:10:32;;;;;;;8.10;2.20;;;;;;;17.25;58.39;100771.31;4975016;28;20051;-60
2021/05/18 02:12:59;;;;;;;9.63;1.27;;;;;;;17.18;58.77;100766.13;4974056;28;20074;-61
2021/05/18 02:15:45;;;;;;;4.38;1.00;;;;;;;17.17;58.72;100758.81;4957311;28;20121;-61
2021/05/18 02:20:53;;;;;;;7.20;1.70;;;;;;;17.15;58.75;100763.94;4974387;28;20055;-62
2021/05/18 02:26:06;;;;;;;7.77;1.50;;;;;;;17.18;58.82;100768.94;4974481;28;20135;-64
2021/05/18 02:28:33;;;;;;;4.43;1.27;;;;;;;17.16;58.48;100748.69;4974134;28;20494;-63
2021/05/18 02:31:00;;;;;;;4.33;0.83;;;;;;;17.20;58.91;100775.13;4969080;28;20097;-61
2021/05/18 02:33:27;;;;;;;8.18;1.67;;;;;;;17.11;59.27;100756.44;4974349;28;20050;-62
2021/05/18 02:35:54;;;;;;;4.20;1.13;;;;;;;17.17;58.93;100770.13;4974955;28;20072;-61
2021/05/18 02:38:21;;;;;;;5.32;1.13;;;;;;;17.02;59.01;100742.25;4956003;28;20123;-60
2021/05/18 02:40:48;;;;;;;2.77;1.33;;;;;;;17.00;58.83;100736.94;4974728;28;20043;-63
2021/05/18 02:43:18;;;;;;;9.63;1.77;;;;;;;17.15;59.22;100758.28;4974432;28;20051;-63
2021/05/18 02:51:16;;;;;;;4.67;1.03;;;;;;;17.18;58.93;100752.00;4943877;28;20542;-62
2021/05/18 02:53:43;;;;;;;4.97;1.37;;;;;;;17.15;59.26;100751.81;4973902;28;20174;-62
2021/05/18 02:56:37;;;;;;;4.22;1.33;;;;;;;17.21;59.22;100754.19;4965993;28;20071;-62
2021/05/18 02:59:10;;;;;;;4.63;1.30;;;;;;;17.13;59.47;100754.97;4954776;29;20081;-62
2021/05/18 03:01:38;;;;;;;2.70;1.00;;;;;;;17.03;59.54;100738.31;4961361;28;20133;-61
2021/05/18 03:04:05;;;;;;;3.67;1.20;;;;;;;17.18;59.41;100746.38;4973205;28;20454;-62
2021/05/18 03:06:33;;;;;;;5.43;0.95;;;;;;;17.28;58.91;100762.22;4954995;28;20109;-62
2021/05/18 03:09:07;;;;;;;5.68;1.13;;;;;;;17.13;59.27;100749.34;4973414;28;20043;-64
2021/05/18 03:11:35;;;;;;;7.70;1.43;;;;;;;17.19;59.12;100747.19;4973953;28;20078;-62
2021/05/18 03:14:03;;;;;;;10.50;1.40;;;;;;;17.28;59.16;100751.75;4970915;28;20081;-62
2021/05/18 03:16:31;;;;;;;8.20;1.08;;;;;;;17.18;59.32;100729.44;4971636;28;20534;-63
2021/05/18 03:18:58;;;;;;;0.98;0.43;;;;;;;17.14;59.48;100751.00;4973129;28;20062;-61
2021/05/18 03:21:25;;;;;;;2.63;0.83;;;;;;;17.13;59.57;100746.50;4973946;28;20042;-61
2021/05/18 03:23:52;;;;;;;3.22;1.20;;;;;;;17.13;59.30;100728.72;4965064;28;20047;-62
2021/05/18 03:26:19;;;;;;;1.93;0.77;;;;;;;16.97;59.42;100706.53;4969328;28;20079;-68
2021/05/18 03:28:48;;;;;;;1.90;0.80;;;;;;;17.11;59.45;100750.81;4961355;28;20158;-61
2021/05/18 03:36:48;;;;;;;6.73;1.40;;;;;;;17.09;59.94;100747.44;4965586;28;20134;-61
2021/05/18 03:39:15;;;;;;;8.50;1.50;;;;;;;17.21;59.68;100757.03;4973942;28;20113;-60
2021/05/18 03:42:07;;;;;;;3.75;1.55;;;;;;;17.14;59.70;100756.63;4971601;28;20050;-61
2021/05/18 03:44:48;;;;;;;3.35;1.00;;;;;;;16.91;60.35;100729.56;4972940;28;20130;-60
2021/05/18 03:53:09;;;;;;;5.07;1.38;;;;;;;17.08;60.15;100740.16;4937588;28;20082;-61
2021/05/18 03:58:36;;;;;;;2.40;0.68;;;;;;;16.72;60.52;100690.22;4954214;29;20468;-61
2021/05/18 04:04:14;;;;;;;6.53;1.30;;;;;;;17.05;60.54;100750.91;4956339;28;20078;-60
2021/05/18 04:17:40;;;;;;;5.03;1.17;;;;;;;16.65;62.99;100724.50;4948743;28;20074;-65
2021/05/18 04:25:31;;;;;;;12.47;1.50;;;;;;;16.69;63.31;100716.25;4972328;28;20055;-60
2021/05/18 04:49:57;;;;;;;3.08;1.00;;;;;;;16.84;63.56;100723.53;4972758;28;20133;-59
2021/05/18 04:52:38;;;;;;;6.53;2.70;;;;;;;16.56;64.89;100690.56;4971070;28;20109;-60
2021/05/18 05:00:51;;;;;;;9.00;1.97;;;;;;;16.88;64.53;100718.91;4976003;28;20089;-64
2021/05/18 05:03:45;;;;;;;8.23;1.70;;;;;;;16.93;64.49;100718.81;4966661;28;20055;-64
2021/05/18 05:06:27;;;;;;;4.93;1.20;;;;;;;16.99;64.48;100725.97;4961003;28;20570;-63
2021/05/18 05:09:07;;;;;;;6.87;1.57;;;;;;;17.01;64.27;100727.31;4963051;28;20077;-60
2021/05/18 05:14:26;;;;;;;7.23;1.80;;;;;;;17.12;64.78;100721.41;4975577;28;20075;-61
2021/05/18 05:16:53;;;;;;;5.27;1.40;;;;;;;16.96;65.10;100695.59;4974019;28;20142;-65
2021/05/18 05:19:21;;;;;;;5.65;2.00;;;;;;;17.08;65.19;100724.06;4972039;28;20442;-65
2021/05/18 05:21:48;;;;;;;6.90;1.40;;;;;;;17.12;65.20;100725.06;4976125;28;20117;-61
2021/05/18 05:24:15;;;;;;;4.65;1.35;;;;;;;17.10;65.86;100726.56;4975288;28;20051;-65
2021/05/18 05:26:42;;;;;;;5.80;1.70;;;;;;;17.21;65.38;100717.50;4975433;28;20089;-64
2021/05/18 05:29:09;;;;;;;3.58;1.05;;;;;;;16.98;65.36;100696.09;4974766;28;20528;-61
2021/05/18 05:31:38;;;;;;;8.18;2.17;;;;;;;17.21;65.74;100728.81;4975439;28;20043;-59
2021/05/18 05:34:05;;;;;;;4.57;1.27;;;;;;;17.16;65.54;100712.00;4970038;28;20099;-65
2021/05/18 05:36:32;;;;;;;7.05;2.20;;;;;;;17.23;65.77;100726.50;4969988;28;20113;-61
2021/05/18 05:39:09;;;;;;;5.32;1.80;;;;;;;17.13;65.71;100715.47;4957989;28;20066;-65
2021/05/18 05:41:36;;;;;;;9.45;1.85;;;;;;;17.33;65.80;100733.03;4970951;28;20046;-64
2021/05/18 05:44:05;;;;;;;5.57;2.30;;;;;;;17.43;65.59;100746.88;4971177;28;20471;-64
2021/05/18 05:46:33;;;;;;;7.18;2.03;;;;;;;17.44;65.64;100740.09;4966273;28;20456;-62
2021/05/18 05:49:00;;;;;;;7.05;1.58;;;;;;;17.24;65.24;100727.34;4963972;28;20058;-63
2021/05/18 05:51:27;;;;;;;7.57;1.67;;;;;;;17.43;65.50;100746.88;4957586;28;20490;-59
2021/05/18 05:53:58;;;;;;;5.30;1.95;;;;;;;17.46;65.30;100752.69;4975272;28;20050;-65
2021/05/18 05:56:27;;;;;;;3.38;1.52;;;;;;;17.50;65.00;100753.75;4954522;29;20403;-64
2021/05/18 05:58:54;;;;;;;10.20;1.65;;;;;;;17.53;65.47;100766.38;4964100;28;20097;-64
2021/05/18 06:01:21;;;;;;;3.10;1.83;;;;;;;17.53;65.36;100777.66;4974867;28;20471;-64
2021/05/18 06:03:48;;;;;;;5.40;2.03;;;;;;;17.50;65.61;100776.34;4973249;28;20074;-63
2021/05/18 06:06:15;;;;;;;6.72;1.67;;;;;;;17.50;65.37;100758.53;4974330;28;20039;-63
2021/05/18 06:08:46;;;;;;;7.93;2.58;;;;;;;17.65;64.77;100777.91;4970834;28;20462;-63
2021/05/18 06:11:45;;;;;;;6.80;2.70;;;;;;;17.63;65.18;100788.69;4973853;28;20254;-63
2021/05/18 06:14:15;;;;;;;11.23;2.03;;;;;;;17.67;64.66;100769.94;4964049;28;20399;-63
2021/05/18 06:49:24;;;;;;;8.65;1.63;;;;;;;16.59;69.32;100776.50;4966718;28;20495;-64
2021/05/18 06:51:51;;;;;;;8.65;2.42;;;;;;;16.30;70.03;100734.56;4972041;28;20042;-63
2021/05/18 06:54:18;;;;;;;2.60;1.53;;;;;;;16.38;70.69;100766.84;4959378;28;20056;-63
2021/05/18 06:56:49;;;;;;;7.83;1.90;;;;;;;16.42;70.56;100773.50;4967884;28;20047;-66
2021/05/18 07:01:46;;;;;;;;;;;;;;;16.37;71.58;100765.16;4972089;28;20047;-64
2021/05/18 07:04:14;;;;;;;7.43;2.03;;;;;;;16.24;72.25;100766.81;4970042;28;19929;-65
2021/05/18 07:09:11;;;;;;;7.07;2.10;;;;;;;16.23;72.24;100774.44;4972209;28;20070;-67
2021/05/18 07:11:38;;;;;;;7.33;2.43;;;;;;;16.19;72.69;100776.22;4969190;28;20043;-67
2021/05/18 07:14:05;;;;;;;8.73;2.20;;;;;;;16.13;72.57;100754.91;4973915;28;20124;-66
2021/05/18 07:16:32;;;;;;;5.57;1.53;;;;;;;16.22;72.46;100767.13;4968836;28;20530;-65
2021/05/18 07:19:00;;;;;;;6.97;2.13;;;;;;;16.20;72.99;100766.59;4954117;28;20082;-65
2021/05/18 07:21:27;;;;;;;6.13;1.90;;;;;;;16.20;73.11;100765.78;4937975;29;20539;-66
2021/05/18 07:23:55;;;;;;;7.27;2.63;;;;;;;16.29;72.94;100776.00;4963635;28;20066;-66
2021/05/18 07:26:23;;;;;;;8.53;2.33;;;;;;;16.33;73.13;100790.31;4954953;29;20047;-66
2021/05/18 07:28:50;;;;;;;6.37;2.43;;;;;;;16.24;73.44;100764.84;4954941;28;20058;-66
2021/05/18 07:31:17;;;;;;;5.80;1.93;;;;;;;16.40;72.94;100782.25;4962673;28;20098;-67
2021/05/18 07:33:44;;;;;;;9.07;2.57;;;;;;;16.29;73.01;100764.72;4954503;29;20396;-67
2021/05/18 07:36:11;;;;;;;11.57;3.17;;;;;;;16.25;73.37;100754.41;4967820;28;20490;-67
2021/05/18 07:38:41;;;;;;;5.50;2.43;;;;;;;16.40;73.25;100778.59;5075977;23;20062;-66
2021/05/18 07:41:08;;;;;;;;;;;;;;;16.34;74.47;100777.88;4970155;28;20050;-66
2021/05/18 07:43:36;;;;;;;5.80;1.73;;;;;;;16.20;75.12;100782.69;4973099;28;19976;-66
2021/05/18 07:46:04;;;;;;;7.27;2.30;;;;;;;16.21;74.98;100773.94;4954482;28;20051;-66
2021/05/18 07:48:41;;;;;;;4.67;1.93;;;;;;;16.23;74.84;100777.25;4954407;29;20055;-67
2021/05/18 07:59:15;;;;;;;7.33;2.80;;;;;;;16.27;75.54;100789.59;4957889;28;20047;-68
2021/05/18 08:07:35;;;;;;;7.00;2.70;;;;;;;16.48;75.73;100777.91;4960150;28;20546;-69
2021/05/18 08:12:37;;;;;;;9.33;2.27;;;;;;;16.79;75.84;100787.38;4961138;28;20051;-67
2021/05/18 08:18:05;;;;;;;7.43;1.70;;;;;;;16.86;76.48;100780.47;4959076;28;20051;-69
2021/05/18 09:36:42;;;;;;;2.17;1.30;;;;;;;17.06;78.38;100816.66;4959578;29;20078;-65
2021/05/18 10:38:44;;;;;;;3.63;1.20;;;;;;;17.74;78.92;100866.38;4918434;29;20048;-64
2021/05/18 10:41:18;;;;;;;7.80;1.35;;;;;;;17.75;78.65;100873.69;4918006;29;20476;-64
2021/05/18 10:44:00;;;;;;;2.80;1.45;;;;;;;17.80;78.94;100866.28;4918210;29;20048;-63
2021/05/18 10:46:29;;;;;;;2.45;1.30;;;;;;;17.70;78.60;100859.69;4918376;29;20100;-64
2021/05/18 10:49:04;;;;;;;1.83;0.90;;;;;;;17.81;78.92;100867.94;4918230;29;20084;-65
2021/05/18 10:51:48;;;;;;;2.60;1.17;;;;;;;17.77;79.13;100857.25;4918512;29;20076;-65
2021/05/18 10:54:34;;;;;;;6.00;1.38;;;;;;;17.94;79.02;100855.72;4917089;29;20052;-65
2021/05/18 10:57:05;;;;;;;7.55;1.90;;;;;;;18.15;79.08;100876.66;4918797;29;20051;-64
2021/05/18 10:59:40;;;;;;;6.03;2.13;;;;;;;18.17;79.12;100874.31;4917957;29;20126;-64
2021/05/18 11:02:24;;;;;;;5.70;1.30;;;;;;;18.29;79.17;100881.34;4918174;29;20071;-63
2021/05/18 11:05:06;;;;;;;6.40;1.38;;;;;;;18.36;78.79;100881.72;4917732;29;20048;-63
2021/05/18 11:07:38;;;;;;;3.42;1.17;;;;;;;18.29;78.81;100875.69;4917406;29;20461;-62
2021/05/18 11:10:08;;;;;;;7.72;1.63;;;;;;;18.17;78.76;100876.31;4917609;29;20091;-63
2021/05/18 11:12:36;;;;;;;3.50;1.30;;;;;;;18.08;78.97;100895.19;4917481;29;20183;-63
2021/05/18 11:15:06;;;;;;;7.10;1.92;;;;;;;18.11;78.74;100880.44;4917554;29;20058;-63
2021/05/18 11:17:36;;;;;;;13.32;2.00;;;;;;;18.08;79.09;100895.19;4918021;29;20468;-63
2021/05/18 11:20:09;;;;;;;8.43;2.20;;;;;;;18.16;78.78;100906.56;4917149;29;20503;-63
2021/05/18 11:26:03;;;;;;;8.95;2.15;;;;;;;18.28;78.40;100891.00;4916896;29;20544;-63
2021/05/18 11:28:45;;;;;;;9.43;2.20;;;;;;;18.34;78.12;100907.50;4917345;29;20412;-64
2021/05/18 11:31:24;;;;;;;7.53;1.83;;;;;;;18.41;78.04;100924.00;4917561;29;20108;-64
2021/05/18 11:33:52;;;;;;;11.07;2.33;;;;;;;18.37;78.14;100918.16;4917065;29;20084;-63
2021/05/18 11:36:26;;;;;;;4.45;1.80;;;;;;;18.35;77.74;100913.97;4917231;29;20123;-63
2021/05/18 11:39:16;;;;;;;8.52;2.13;;;;;;;18.48;78.06;100913.06;4916899;29;20048;-63
2021/05/18 11:41:45;;;;;;;3.60;1.80;;;;;;;18.37;77.66;100904.03;4900691;29;20076;-63
2021/05/18 11:44:14;;;;;;;8.93;2.47;;;;;;;18.58;77.30;100917.59;4917296;29;20052;-63
2021/05/18 11:46:43;;;;;;;7.45;2.28;;;;;;;18.62;77.55;100935.59;4917242;29;20389;-64
2021/05/18 11:49:12;;;;;;;5.57;2.50;;;;;;;18.72;77.87;100931.66;4917313;29;20052;-63
2021/05/18 11:51:50;;;;;;;7.18;3.13;;;;;;;18.67;77.66;100915.66;4917375;29;20076;-64
2021/05/18 11:54:30;;;;;;;7.13;2.53;;;;;;;19.15;77.43;100929.81;4916821;29;20131;-64
2021/05/18 11:56:58;;;;;;;5.30;1.85;;;;;;;19.29;77.13;100920.34;4916929;29;20048;-65
2021/05/18 11:59:45;;;;;;;1.65;1.30;;;;;;;19.34;77.00;100954.16;4916547;29;20566;-66
2021/05/18 12:02:20;;;;;;;7.00;1.70;;;;;;;19.30;76.75;100951.16;4917035;29;20099;-67
2021/05/18 12:04:50;;;;;;;3.03;1.00;;;;;;;19.19;76.99;100935.66;4916337;29;20052;-67
2021/05/18 12:07:17;;;;;;;3.13;1.55;;;;;;;19.53;76.66;100943.38;4916349;29;20078;-66
2021/05/18 12:09:48;;;;;;;1.55;1.20;;;;;;;19.95;76.11;100940.91;4916952;29;20052;-65
2021/05/18 12:12:15;;;;;;;6.53;1.40;;;;;;;21.25;73.26;100960.38;4916901;29;20048;-64
2021/05/18 12:14:48;;;;;;;4.28;1.35;;;;;;;22.68;70.13;100957.34;4916946;29;20112;-62
2021/05/18 12:17:30;;;;;;;2.03;0.82;;;;;;;23.25;69.35;100955.66;4916505;29;20107;-60
2021/05/18 12:19:59;;;;;;;1.50;1.10;;;;;;;22.23;71.73;100968.72;4900312;29;20056;-62
2021/05/18 12:22:26;;;;;;;2.03;1.30;;;;;;;22.44;70.84;100954.44;4916505;29;20052;-62
2021/05/18 12:24:55;;;;;;;4.88;0.80;;;;;;;21.83;71.81;100968.38;4917027;29;20048;-66
2021/05/18 12:27:22;;;;;;;5.63;1.15;;;;;;;21.55;72.33;100971.75;4916602;29;20048;-67
2021/05/18 12:29:53;;;;;;;3.53;0.80;;;;;;;22.92;69.26;100961.41;4916486;29;20076;-64
2021/05/18 12:32:22;;;;;;;;;;;;;;;22.44;69.90;100957.28;4900093;29;20065;-67
2021/05/18 12:34:52;;;;;;;10.40;1.45;;;;;;;22.07;70.35;100939.22;4916428;29;19927;-65
2021/05/18 12:37:32;;;;;;;2.03;0.93;;;;;;;23.50;67.30;100962.13;4916382;29;20052;-66
2021/05/18 12:40:20;;;;;;;7.05;1.30;;;;;;;22.87;67.64;100955.94;4915454;29;20067;-66
2021/05/18 12:42:48;;;;;;;2.53;0.98;;;;;;;22.80;67.33;100953.66;4903672;29;20076;-65
2021/05/18 12:45:15;;;;;;;1.27;0.70;;;;;;;22.57;67.56;100963.84;4916550;29;20511;-62
2021/05/18 12:47:43;;;;;;;5.78;1.33;;;;;;;22.68;67.37;100951.66;4916605;29;20063;-62
2021/05/18 12:50:13;;;;;;;2.60;0.73;;;;;;;22.44;67.34;100945.91;4916284;29;20052;-62
2021/05/18 12:52:43;;;;;;;;;;;;;;;23.39;66.54;100952.44;4916695;29;20052;-61
2021/05/18 12:55:13;;;;;;;;;;;;;;;23.45;66.83;100950.13;4916670;29;19923;-62
2021/05/18 12:58:06;;;;;;;3.40;1.00;;;;;;;23.04;67.16;100954.91;4916569;29;20002;-62
2021/05/18 13:00:44;;;;;;;1.42;0.82;;;;;;;22.68;67.34;100959.38;4916394;29;20063;-63
2021/05/18 13:03:21;;;;;;;4.90;1.20;;;;;;;22.45;67.04;100945.53;4916573;29;20055;-64
2021/05/18 13:05:52;;;;;;;5.28;1.30;;;;;;;22.50;66.17;100967.28;4916188;29;20056;-64
2021/05/18 13:08:24;;;;;;;4.05;1.50;;;;;;;22.54;65.47;100968.22;4916183;29;20059;-64
2021/05/18 13:13:41;;;;;;;5.20;1.52;;;;;;;22.53;64.78;100965.72;4916091;29;20056;-62
2021/05/18 13:16:09;;;;;;;5.20;0.95;;;;;;;22.44;64.38;100971.53;4917325;29;20488;-62
2021/05/18 13:18:53;;;;;;;3.33;0.65;;;;;;;22.21;65.17;100959.69;4919653;29;20052;-62
2021/05/18 13:21:24;;;;;;;4.68;0.80;;;;;;;22.09;64.78;100957.63;4919411;29;20059;-64
2021/05/18 13:26:34;;;;;;;3.60;0.82;;;;;;;22.17;64.11;100972.97;4919122;29;20090;-61
2021/05/18 13:29:08;;;;;;;4.28;1.02;;;;;;;22.21;63.83;100966.22;4919356;29;20059;-63
2021/05/18 13:31:38;;;;;;;1.80;0.93;;;;;;;22.23;63.16;100980.09;4919727;29;20099;-62
2021/05/18 13:34:06;;;;;;;4.13;1.10;;;;;;;21.86;63.35;100948.59;4919797;29;20045;-62
2021/05/18 13:36:44;;;;;;;4.55;1.02;;;;;;;21.60;63.61;100956.50;4917999;29;20063;-62
2021/05/18 13:39:16;;;;;;;5.35;1.33;;;;;;;21.46;63.83;100968.97;4918101;29;20127;-61
2021/05/18 13:41:44;;;;;;;4.47;1.15;;;;;;;21.24;64.36;100977.78;4902787;29;20059;-62
2021/05/18 13:44:16;;;;;;;5.82;1.00;;;;;;;21.21;64.32;100972.78;4919221;29;20048;-63
2021/05/18 13:46:47;;;;;;;2.80;0.80;;;;;;;21.12;64.07;100975.66;4919167;29;20052;-61
2021/05/18 13:49:15;;;;;;;7.78;1.30;;;;;;;21.01;64.01;100977.22;4919084;29;20059;-62
2021/05/18 13:51:43;;;;;;;3.47;1.00;;;;;;;20.91;64.04;100971.91;4919483;29;20052;-62
2021/05/18 13:54:29;;;;;;;2.83;1.30;;;;;;;20.82;64.25;100977.63;4919490;29;20444;-74
2021/05/18 13:56:58;;;;;;;6.22;1.48;;;;;;;20.83;64.05;100990.66;4919238;29;20048;-70
2021/05/18 13:59:25;;;;;;;4.38;1.63;;;;;;;20.86;63.79;100992.00;4919165;29;20100;-70
2021/05/18 14:01:52;;;;;;;4.45;1.60;;;;;;;20.80;63.97;100994.16;4917628;29;20067;-71
2021/05/18 14:04:19;;;;;;;3.17;1.40;;;;;;;20.51;64.11;100967.38;4918775;29;20425;-67
2021/05/18 14:07:15;;;;;;;9.57;1.55;;;;;;;20.62;64.61;100975.53;4918523;29;20494;-66
2021/05/18 14:09:44;;;;;;;12.48;1.65;;;;;;;20.63;64.32;100982.88;4918899;29;20056;-68
2021/05/18 14:12:11;;;;;;;3.20;1.00;;;;;;;20.52;64.49;100969.03;4918796;29;20515;-66
2021/05/18 14:14:38;;;;;;;5.60;0.82;;;;;;;20.52;64.23;100969.03;4918519;29;20056;-66
2021/05/18 14:17:05;;;;;;;5.18;1.38;;;;;;;20.39;64.05;100955.84;4918817;29;20072;-72
2021/05/18 14:19:32;;;;;;;7.03;1.48;;;;;;;20.48;64.33;100987.88;4918407;29;20052;-75
2021/05/18 14:21:59;;;;;;;5.65;1.40;;;;;;;20.50;64.41;100988.41;4918370;29;20056;-74
2021/05/18 14:24:37;;;;;;;4.53;1.40;;;;;;;20.52;64.17;100991.75;4918825;29;20071;-62
2021/05/18 14:27:08;;;;;;;6.90;1.27;;;;;;;20.43;64.04;100981.53;4918225;29;20484;-64
2021/05/18 14:29:35;;;;;;;1.90;1.02;;;;;;;20.43;64.22;100988.03;4901878;29;20416;-63
2021/05/18 14:32:03;;;;;;;6.68;1.30;;;;;;;20.57;64.42;101005.72;4918506;29;20056;-62
2021/05/18 14:34:30;;;;;;;7.13;1.27;;;;;;;20.61;64.08;101005.88;4918275;29;20432;-62
2021/05/18 14:36:57;;;;;;;4.80;1.52;;;;;;;20.50;64.26;100996.03;4918101;29;20056;-62
2021/05/18 14:39:35;;;;;;;2.15;1.27;;;;;;;20.51;64.31;100997.75;4918202;29;20559;-62
2021/05/18 14:44:48;;;;;;;3.75;1.13;;;;;;;20.69;64.11;101012.75;4918065;29;20076;-64
2021/05/18 14:47:22;;;;;;;5.43;1.27;;;;;;;20.65;64.08;100997.53;4901203;29;20072;-64
2021/05/18 14:55:24;;;;;;;4.65;1.40;;;;;;;20.80;64.41;101022.56;4918222;29;20119;-62
2021/05/18 14:57:51;;;;;;;6.82;2.03;;;;;;;20.86;64.12;101018.38;4917778;29;20044;-63
2021/05/18 15:00:19;;;;;;;8.57;1.20;;;;;;;20.86;63.97;101011.84;4917730;29;20048;-63
2021/05/18 15:02:47;;;;;;;10.07;1.40;;;;;;;20.70;63.72;101011.56;4917904;29;20107;-63
2021/05/18 15:05:16;;;;;;;9.07;0.85;;;;;;;20.77;63.71;101009.03;4917672;29;20048;-63
2021/05/18 15:07:44;;;;;;;3.67;1.00;;;;;;;20.72;63.74;101017.75;4917358;29;20135;-64
2021/05/18 15:10:12;;;;;;;4.35;0.80;;;;;;;20.67;63.60;101003.72;4918059;29;20072;-63
2021/05/18 15:12:39;;;;;;;1.85;0.90;;;;;;;20.37;63.89;100992.22;4917575;29;20055;-63
2021/05/18 15:15:07;;;;;;;7.80;1.90;;;;;;;20.50;63.86;101013.06;4917707;29;20067;-63
2021/05/18 15:17:34;;;;;;;4.75;1.10;;;;;;;20.45;64.17;101007.59;4918541;29;20131;-63
2021/05/18 15:20:01;;;;;;;9.55;1.23;;;;;;;20.44;64.04;101011.56;4917381;29;20399;-63
2021/05/18 15:22:29;;;;;;;3.25;0.80;;;;;;;20.45;63.85;101016.94;4918139;29;20059;-63
2021/05/18 15:24:56;;;;;;;6.82;1.10;;;;;;;20.46;64.13;101018.59;4917321;29;20103;-63
2021/05/18 15:27:25;;;;;;;6.35;1.00;;;;;;;20.24;63.89;100996.94;4917744;29;20059;-64
2021/05/18 15:29:55;;;;;;;4.05;1.20;;;;;;;20.36;64.32;101010.41;4916150;29;20055;-63
2021/05/18 15:32:22;;;;;;;3.13;0.95;;;;;;;20.25;64.22;101003.44;4915965;29;20059;-63
2021/05/18 15:34:49;;;;;;;4.88;1.05;;;;;;;20.22;64.07;101009.78;4901038;29;20063;-62
2021/05/18 15:37:17;;;;;;;13.23;1.58;;;;;;;20.35;64.29;101020.94;4917057;29;20052;-63
2021/05/18 15:39:45;;;;;;;5.80;1.67;;;;;;;20.40;63.87;101028.44;4916121;29;20078;-62
2021/05/18 15:42:12;;;;;;;4.65;1.00;;;;;;;20.43;63.43;101016.41;4916738;29;20523;-63
2021/05/18 15:44:39;;;;;;;3.95;0.98;;;;;;;20.34;63.52;101012.75;4917452;29;20115;-62
2021/05/18 15:47:07;;;;;;;5.93;1.67;;;;;;;20.49;63.34;101020.75;4916891;29;20052;-63
2021/05/18 15:49:34;;;;;;;4.22;0.90;;;;;;;20.69;62.64;101033.44;4916778;29;20100;-61
2021/05/18 15:52:01;;;;;;;5.85;0.90;;;;;;;20.63;62.75;101025.44;4917146;29;20385;-63
2021/05/18 15:54:28;;;;;;;4.55;1.15;;;;;;;20.67;62.49;101032.94;4916612;29;20051;-64
2021/05/18 15:56:55;;;;;;;13.02;2.10;;;;;;;20.44;62.06;101009.56;4916929;29;20055;-67
2021/05/18 15:59:24;;;;;;;3.30;0.90;;;;;;;20.45;62.58;101022.59;4916113;29;20048;-66
2021/05/18 16:01:55;;;;;;;4.63;1.30;;;;;;;20.33;62.52;101033.78;4917426;29;20535;-61
2021/05/18 16:04:23;;;;;;;6.07;1.00;;;;;;;20.26;62.41;101039.13;4916815;29;20048;-60
2021/05/18 16:06:52;;;;;;;2.72;1.10;;;;;;;20.15;63.03;101040.63;4916660;29;20476;-70
2021/05/18 16:09:19;;;;;;;3.55;0.85;;;;;;;20.12;63.36;101039.28;4917166;29;20052;-67
2021/05/18 16:11:45;;;;;;;4.10;0.90;;;;;;;20.16;63.41;101040.28;4916659;29;20072;-66
2021/05/18 16:14:12;;;;;;;2.58;1.00;;;;;;;20.05;63.43;101041.81;4916656;29;20056;-67
2021/05/18 16:16:39;;;;;;;3.67;1.60;;;;;;;19.68;63.06;100987.41;4916643;29;20060;-66
2021/05/18 16:19:07;;;;;;;4.97;1.05;;;;;;;19.82;63.05;101012.75;4916371;29;20465;-67
2021/05/18 16:21:34;;;;;;;3.53;1.20;;;;;;;20.06;62.65;101041.44;4916379;29;20052;-67
2021/05/18 16:24:01;;;;;;;1.77;0.80;;;;;;;20.11;62.33;101040.47;4899904;29;20048;-67
2021/05/18 16:26:31;;;;;;;6.20;1.98;;;;;;;20.07;62.03;101037.47;4899786;29;20139;-67
2021/05/18 16:29:00;;;;;;;4.20;1.63;;;;;;;20.06;63.20;101034.94;4916577;29;20088;-68
2021/05/18 16:31:28;;;;;;;3.17;1.35;;;;;;;20.33;62.79;101045.13;4916381;29;20048;-68